createdAt,value
2018-05-31T00:00:06.379Z,0.00
2018-05-31T00:01:06.326Z,0.00
2018-05-31T00:02:06.272Z,0.00
2018-05-31T00:03:06.214Z,0.00
2018-05-31T00:04:06.151Z,0.00
2018-05-31T00:05:06.098Z,0.00
2018-05-31T00:06:06.043Z,0.00
2018-05-31T00:07:05.988Z,0.00
2018-05-31T00:08:05.928Z,0.00
2018-05-31T00:09:05.872Z,0.00
2018-05-31T00:10:05.811Z,0.00
2018-05-31T00:11:05.756Z,0.00
2018-05-31T00:12:05.699Z,0.00
2018-05-31T00:13:05.646Z,0.00
2018-05-31T00:14:05.589Z,0.00
2018-05-31T00:15:05.532Z,0.00
2018-05-31T00:16:05.474Z,0.00
2018-05-31T00:17:05.418Z,0.00
2018-05-31T00:18:05.359Z,0.00
2018-05-31T00:19:05.301Z,0.00
2018-05-31T00:20:05.247Z,0.00
2018-05-31T00:21:05.189Z,0.00
2018-05-31T00:22:05.132Z,0.00
2018-05-31T00:23:05.083Z,0.00
2018-05-31T00:24:05.020Z,0.00
2018-05-31T00:25:04.998Z,0.00
2018-05-31T00:26:04.909Z,0.00
2018-05-31T00:27:04.851Z,0.00
2018-05-31T00:28:04.792Z,0.00
2018-05-31T00:29:04.734Z,0.00
2018-05-31T00:30:04.677Z,0.00
2018-05-31T00:31:04.623Z,0.00
2018-05-31T00:32:04.558Z,0.00
2018-05-31T00:33:04.502Z,0.00
2018-05-31T00:34:04.470Z,0.00
2018-05-31T00:35:04.388Z,0.00
2018-05-31T00:36:04.338Z,0.00
2018-05-31T00:37:04.275Z,0.00
2018-05-31T00:38:04.221Z,0.00
2018-05-31T00:39:04.166Z,0.00
2018-05-31T00:40:04.105Z,0.00
2018-05-31T00:41:04.053Z,0.00
2018-05-31T00:42:03.991Z,0.00
2018-05-31T00:43:03.934Z,0.00
2018-05-31T00:44:03.876Z,0.00
2018-05-31T00:45:03.822Z,0.00
2018-05-31T00:46:03.766Z,0.00
2018-05-31T00:47:03.718Z,0.00
2018-05-31T00:48:03.647Z,0.00
2018-05-31T00:49:03.597Z,0.00
2018-05-31T00:50:03.532Z,0.00
2018-05-31T00:51:03.476Z,0.00
2018-05-31T00:52:03.422Z,0.00
2018-05-31T00:53:03.363Z,0.00
2018-05-31T00:54:03.306Z,0.00
2018-05-31T00:55:03.255Z,0.00
2018-05-31T00:56:03.192Z,0.00
2018-05-31T00:57:03.141Z,0.00
2018-05-31T00:58:03.078Z,0.00
2018-05-31T00:59:03.022Z,0.00
2018-05-31T01:00:02.963Z,0.00
2018-05-31T01:01:02.907Z,0.00
2018-05-31T01:02:02.847Z,0.00
2018-05-31T01:03:02.795Z,0.00
2018-05-31T01:04:02.732Z,0.00
2018-05-31T01:05:02.674Z,0.00
2018-05-31T01:06:02.623Z,0.00
2018-05-31T01:07:02.563Z,0.00
2018-05-31T01:08:02.504Z,0.00
2018-05-31T01:09:02.446Z,0.00
2018-05-31T01:10:02.389Z,0.00
2018-05-31T01:11:02.332Z,0.00
2018-05-31T01:12:02.275Z,0.00
2018-05-31T01:13:02.220Z,0.00
2018-05-31T01:14:02.158Z,0.00
2018-05-31T01:15:02.108Z,0.00
2018-05-31T01:16:02.045Z,0.00
2018-05-31T01:17:01.988Z,0.00
2018-05-31T01:18:01.934Z,0.00
2018-05-31T01:19:01.874Z,0.00
2018-05-31T01:20:01.819Z,0.00
2018-05-31T01:21:01.762Z,0.00
2018-05-31T01:22:01.704Z,0.00
2018-05-31T01:23:01.648Z,0.00
2018-05-31T01:24:01.592Z,0.00
2018-05-31T01:25:01.531Z,0.00
2018-05-31T01:26:01.471Z,0.00
2018-05-31T01:27:01.414Z,0.00
2018-05-31T01:28:01.355Z,0.00
2018-05-31T01:29:01.299Z,0.00
2018-05-31T01:30:01.247Z,0.00
2018-05-31T01:31:01.182Z,0.00
2018-05-31T01:32:01.169Z,0.00
2018-05-31T01:33:01.073Z,0.00
2018-05-31T01:34:01.014Z,0.00
2018-05-31T01:35:00.957Z,0.00
2018-05-31T01:36:00.896Z,0.00
2018-05-31T01:37:00.844Z,0.00
2018-05-31T01:38:00.784Z,0.00
2018-05-31T01:39:00.726Z,0.00
2018-05-31T01:40:00.667Z,0.00
2018-05-31T01:41:00.620Z,0.00
2018-05-31T01:42:00.557Z,0.00
2018-05-31T01:43:00.500Z,0.00
2018-05-31T01:44:00.437Z,0.00
2018-05-31T01:45:00.386Z,0.00
2018-05-31T01:46:00.322Z,0.00
2018-05-31T01:47:00.268Z,0.00
2018-05-31T01:48:00.206Z,0.00
2018-05-31T01:49:00.149Z,0.00
2018-05-31T01:50:00.096Z,0.00
2018-05-31T01:51:00.044Z,0.00
2018-05-31T01:51:59.977Z,0.00
2018-05-31T01:52:59.927Z,0.00
2018-05-31T01:53:59.864Z,0.00
2018-05-31T01:54:59.808Z,0.00
2018-05-31T01:55:59.750Z,0.00
2018-05-31T01:56:59.699Z,0.00
2018-05-31T01:57:59.632Z,0.00
2018-05-31T01:58:59.583Z,0.00
2018-05-31T01:59:59.513Z,0.00
2018-05-31T02:00:59.462Z,0.00
2018-05-31T02:01:59.406Z,0.00
2018-05-31T02:02:59.350Z,0.00
2018-05-31T02:03:59.287Z,0.00
2018-05-31T02:04:59.232Z,0.00
2018-05-31T02:05:59.172Z,0.00
2018-05-31T02:06:59.114Z,0.00
2018-05-31T02:07:59.056Z,0.00
2018-05-31T02:08:58.997Z,0.00
2018-05-31T02:09:58.942Z,0.00
2018-05-31T02:10:58.893Z,0.00
2018-05-31T02:11:58.828Z,0.00
2018-05-31T02:12:58.771Z,0.00
2018-05-31T02:13:58.714Z,0.00
2018-05-31T02:14:58.656Z,0.00
2018-05-31T02:15:58.599Z,0.00
2018-05-31T02:16:58.541Z,0.00
2018-05-31T02:17:58.482Z,0.00
2018-05-31T02:18:58.424Z,0.00
2018-05-31T02:19:58.367Z,0.00
2018-05-31T02:20:58.310Z,0.00
2018-05-31T02:21:58.252Z,0.00
2018-05-31T02:22:58.196Z,0.00
2018-05-31T02:23:58.139Z,0.00
2018-05-31T02:24:58.089Z,0.00
2018-05-31T02:25:58.025Z,0.00
2018-05-31T02:26:57.960Z,0.00
2018-05-31T02:27:57.912Z,0.00
2018-05-31T02:28:57.852Z,0.00
2018-05-31T02:29:57.793Z,0.00
2018-05-31T02:30:57.733Z,0.00
2018-05-31T02:31:57.677Z,0.00
2018-05-31T02:32:57.619Z,0.00
2018-05-31T02:33:57.568Z,0.00
2018-05-31T02:34:57.515Z,0.00
2018-05-31T02:35:57.456Z,0.00
2018-05-31T02:36:57.393Z,0.00
2018-05-31T02:37:57.332Z,0.00
2018-05-31T02:38:57.273Z,0.00
2018-05-31T02:39:57.223Z,0.00
2018-05-31T02:40:57.158Z,0.00
2018-05-31T02:41:57.111Z,5.63
2018-05-31T02:42:57.045Z,5.63
2018-05-31T02:43:56.986Z,5.63
2018-05-31T02:44:56.929Z,5.63
2018-05-31T02:45:56.875Z,5.63
2018-05-31T02:46:56.814Z,5.63
2018-05-31T02:47:56.757Z,5.63
2018-05-31T02:48:56.714Z,5.63
2018-05-31T02:49:56.642Z,11.25
2018-05-31T02:50:56.582Z,11.25
2018-05-31T02:51:56.527Z,11.25
2018-05-31T02:52:56.469Z,11.25
2018-05-31T02:53:56.416Z,11.25
2018-05-31T02:54:56.355Z,11.25
2018-05-31T02:55:56.298Z,11.25
2018-05-31T02:56:56.238Z,16.88
2018-05-31T02:57:56.180Z,16.88
2018-05-31T02:58:56.119Z,16.88
2018-05-31T02:59:56.067Z,16.88
2018-05-31T03:00:56.010Z,22.50
2018-05-31T03:01:55.950Z,22.50
2018-05-31T03:02:55.891Z,22.50
2018-05-31T03:03:55.831Z,22.50
2018-05-31T03:04:55.780Z,22.50
2018-05-31T03:05:55.724Z,28.13
2018-05-31T03:06:55.661Z,28.13
2018-05-31T03:07:55.603Z,28.13
2018-05-31T03:08:55.550Z,33.75
2018-05-31T03:09:55.484Z,33.75
2018-05-31T03:10:55.431Z,33.75
2018-05-31T03:11:55.366Z,33.75
2018-05-31T03:12:55.318Z,39.38
2018-05-31T03:13:55.256Z,39.38
2018-05-31T03:14:55.198Z,39.38
2018-05-31T03:15:55.138Z,45.00
2018-05-31T03:16:55.085Z,45.00
2018-05-31T03:17:55.026Z,45.00
2018-05-31T03:18:54.967Z,45.00
2018-05-31T03:19:54.909Z,50.63
2018-05-31T03:20:54.852Z,50.63
2018-05-31T03:21:54.790Z,50.63
2018-05-31T03:22:54.734Z,56.25
2018-05-31T03:23:54.674Z,56.25
2018-05-31T03:24:54.616Z,56.25
2018-05-31T03:25:54.565Z,61.88
2018-05-31T03:26:54.511Z,61.88
2018-05-31T03:27:54.455Z,61.88
2018-05-31T03:28:54.389Z,67.50
2018-05-31T03:29:54.334Z,67.50
2018-05-31T03:30:54.270Z,67.50
2018-05-31T03:31:54.220Z,73.13
2018-05-31T03:32:54.156Z,73.13
2018-05-31T03:33:54.097Z,73.13
2018-05-31T03:34:54.040Z,78.75
2018-05-31T03:35:53.981Z,78.75
2018-05-31T03:36:53.922Z,78.75
2018-05-31T03:37:53.867Z,84.38
2018-05-31T03:38:53.814Z,84.38
2018-05-31T03:39:53.751Z,84.38
2018-05-31T03:40:53.696Z,84.38
2018-05-31T03:41:53.633Z,90.00
2018-05-31T03:42:53.576Z,90.00
2018-05-31T03:43:53.519Z,90.00
2018-05-31T03:44:53.460Z,95.63
2018-05-31T03:45:53.405Z,95.63
2018-05-31T03:46:53.349Z,95.63
2018-05-31T03:47:53.291Z,101.25
2018-05-31T03:48:53.233Z,101.25
2018-05-31T03:49:53.173Z,101.25
2018-05-31T03:50:53.114Z,106.88
2018-05-31T03:51:53.058Z,106.88
2018-05-31T03:52:53.001Z,106.88
2018-05-31T03:53:52.940Z,112.50
2018-05-31T03:54:52.882Z,112.50
2018-05-31T03:55:52.831Z,112.50
2018-05-31T03:56:52.785Z,118.13
2018-05-31T03:57:52.711Z,118.13
2018-05-31T03:58:52.656Z,123.75
2018-05-31T03:59:52.594Z,123.75
2018-05-31T04:00:52.536Z,123.75
2018-05-31T04:01:52.483Z,129.38
2018-05-31T04:02:52.422Z,129.38
2018-05-31T04:03:52.363Z,129.38
2018-05-31T04:04:52.351Z,135.00
2018-05-31T04:05:52.248Z,135.00
2018-05-31T04:06:52.188Z,135.00
2018-05-31T04:07:52.133Z,140.63
2018-05-31T04:08:52.071Z,140.63
2018-05-31T04:09:52.017Z,146.25
2018-05-31T04:10:51.957Z,146.25
2018-05-31T04:11:51.900Z,146.25
2018-05-31T04:12:51.847Z,151.88
2018-05-31T04:13:51.780Z,151.88
2018-05-31T04:14:51.723Z,157.50
2018-05-31T04:15:51.668Z,157.50
2018-05-31T04:16:51.615Z,163.13
2018-05-31T04:17:51.557Z,163.13
2018-05-31T04:18:51.493Z,163.13
2018-05-31T04:19:51.436Z,168.75
2018-05-31T04:20:51.378Z,168.75
2018-05-31T04:21:51.321Z,168.75
2018-05-31T04:22:51.264Z,168.75
2018-05-31T04:23:51.211Z,174.38
2018-05-31T04:24:51.150Z,174.38
2018-05-31T04:25:51.091Z,174.38
2018-05-31T04:26:51.031Z,180.00
2018-05-31T04:27:50.974Z,180.00
2018-05-31T04:28:50.914Z,185.63
2018-05-31T04:29:50.862Z,185.63
2018-05-31T04:30:50.801Z,185.63
2018-05-31T04:31:50.744Z,191.25
2018-05-31T04:32:50.685Z,191.25
2018-05-31T04:33:50.629Z,191.25
2018-05-31T04:34:50.577Z,196.88
2018-05-31T04:35:50.518Z,196.88
2018-05-31T04:36:50.456Z,196.88
2018-05-31T04:37:50.399Z,202.50
2018-05-31T04:38:50.340Z,202.50
2018-05-31T04:39:50.283Z,202.50
2018-05-31T04:40:50.236Z,208.13
2018-05-31T04:41:50.170Z,208.13
2018-05-31T04:42:50.112Z,208.13
2018-05-31T04:43:50.049Z,213.75
2018-05-31T04:44:49.998Z,213.75
2018-05-31T04:45:49.936Z,213.75
2018-05-31T04:46:49.877Z,219.38
2018-05-31T04:47:49.820Z,219.38
2018-05-31T04:48:49.762Z,219.38
2018-05-31T04:49:49.707Z,225.00
2018-05-31T04:50:49.649Z,225.00
2018-05-31T04:51:49.603Z,225.00
2018-05-31T04:52:49.537Z,230.63
2018-05-31T04:53:49.477Z,230.63
2018-05-31T04:54:49.419Z,230.63
2018-05-31T04:55:49.361Z,236.25
2018-05-31T04:56:49.306Z,236.25
2018-05-31T04:57:49.246Z,241.88
2018-05-31T04:58:49.189Z,241.88
2018-05-31T04:59:49.131Z,247.50
2018-05-31T05:00:49.074Z,258.75
2018-05-31T05:01:49.020Z,275.63
2018-05-31T05:02:48.966Z,286.88
2018-05-31T05:03:48.904Z,292.50
2018-05-31T05:04:48.855Z,303.75
2018-05-31T05:05:48.787Z,337.50
2018-05-31T05:06:48.728Z,388.13
2018-05-31T05:07:48.673Z,399.38
2018-05-31T05:08:48.619Z,388.13
2018-05-31T05:09:48.558Z,376.88
2018-05-31T05:10:48.500Z,360.00
2018-05-31T05:11:48.442Z,315.00
2018-05-31T05:12:48.385Z,281.25
2018-05-31T05:13:48.331Z,270.00
2018-05-31T05:14:48.280Z,270.00
2018-05-31T05:15:48.222Z,275.63
2018-05-31T05:16:48.166Z,286.88
2018-05-31T05:17:48.099Z,303.75
2018-05-31T05:18:48.053Z,292.50
2018-05-31T05:19:47.989Z,281.25
2018-05-31T05:20:47.933Z,309.38
2018-05-31T05:21:47.877Z,365.63
2018-05-31T05:22:47.821Z,405.00
2018-05-31T05:23:47.760Z,421.88
2018-05-31T05:24:47.706Z,450.00
2018-05-31T05:25:47.652Z,433.13
2018-05-31T05:26:47.597Z,354.38
2018-05-31T05:27:47.537Z,286.88
2018-05-31T05:28:47.482Z,281.25
2018-05-31T05:29:47.425Z,281.25
2018-05-31T05:30:47.368Z,286.88
2018-05-31T05:31:47.312Z,286.88
2018-05-31T05:32:47.262Z,286.88
2018-05-31T05:33:47.201Z,286.88
2018-05-31T05:34:47.145Z,286.88
2018-05-31T05:35:47.092Z,292.50
2018-05-31T05:36:47.035Z,292.50
2018-05-31T05:37:46.981Z,292.50
2018-05-31T05:38:46.920Z,292.50
2018-05-31T05:39:46.863Z,298.13
2018-05-31T05:40:46.810Z,298.13
2018-05-31T05:41:46.750Z,298.13
2018-05-31T05:42:46.694Z,303.75
2018-05-31T05:43:46.637Z,303.75
2018-05-31T05:44:46.579Z,303.75
2018-05-31T05:45:46.527Z,303.75
2018-05-31T05:46:46.467Z,309.38
2018-05-31T05:47:46.414Z,309.38
2018-05-31T05:48:46.362Z,309.38
2018-05-31T05:49:46.300Z,309.38
2018-05-31T05:50:46.245Z,315.00
2018-05-31T05:51:46.182Z,315.00
2018-05-31T05:52:46.132Z,315.00
2018-05-31T05:53:46.078Z,315.00
2018-05-31T05:54:46.022Z,315.00
2018-05-31T05:55:45.967Z,320.63
2018-05-31T05:56:45.904Z,320.63
2018-05-31T05:57:45.852Z,320.63
2018-05-31T05:58:45.800Z,320.63
2018-05-31T05:59:45.742Z,320.63
2018-05-31T06:00:45.686Z,331.88
2018-05-31T06:01:45.639Z,326.25
2018-05-31T06:02:45.569Z,326.25
2018-05-31T06:03:45.514Z,326.25
2018-05-31T06:04:45.456Z,326.25
2018-05-31T06:05:45.400Z,326.25
2018-05-31T06:06:45.351Z,331.88
2018-05-31T06:07:45.292Z,331.88
2018-05-31T06:08:45.240Z,331.88
2018-05-31T06:09:45.178Z,331.88
2018-05-31T06:10:45.118Z,331.88
2018-05-31T06:11:45.066Z,331.88
2018-05-31T06:12:45.016Z,331.88
2018-05-31T06:13:44.955Z,331.88
2018-05-31T06:14:44.898Z,331.88
2018-05-31T06:15:44.840Z,337.50
2018-05-31T06:16:44.786Z,337.50
2018-05-31T06:17:44.731Z,337.50
2018-05-31T06:18:44.672Z,337.50
2018-05-31T06:19:44.638Z,343.13
2018-05-31T06:20:44.563Z,343.13
2018-05-31T06:21:44.509Z,343.13
2018-05-31T06:22:44.448Z,343.13
2018-05-31T06:23:44.397Z,348.75
2018-05-31T06:24:44.339Z,348.75
2018-05-31T06:25:44.286Z,348.75
2018-05-31T06:26:44.235Z,348.75
2018-05-31T06:27:44.175Z,354.38
2018-05-31T06:28:44.116Z,354.38
2018-05-31T06:29:44.072Z,354.38
2018-05-31T06:30:44.007Z,354.38
2018-05-31T06:31:43.950Z,360.00
2018-05-31T06:32:43.897Z,360.00
2018-05-31T06:33:43.841Z,360.00
2018-05-31T06:34:43.780Z,360.00
2018-05-31T06:35:43.727Z,365.63
2018-05-31T06:36:43.668Z,365.63
2018-05-31T06:37:43.619Z,365.63
2018-05-31T06:38:43.563Z,365.63
2018-05-31T06:39:43.508Z,371.25
2018-05-31T06:40:43.456Z,371.25
2018-05-31T06:41:43.394Z,371.25
2018-05-31T06:42:43.339Z,371.25
2018-05-31T06:43:43.301Z,371.25
2018-05-31T06:44:43.231Z,376.88
2018-05-31T06:45:43.175Z,376.88
2018-05-31T06:46:43.118Z,376.88
2018-05-31T06:47:43.063Z,376.88
2018-05-31T06:48:43.006Z,376.88
2018-05-31T06:49:42.957Z,376.88
2018-05-31T06:50:42.901Z,376.88
2018-05-31T06:51:42.857Z,376.88
2018-05-31T06:52:42.790Z,376.88
2018-05-31T06:53:42.732Z,376.88
2018-05-31T06:54:42.681Z,376.88
2018-05-31T06:55:42.628Z,376.88
2018-05-31T06:56:42.568Z,376.88
2018-05-31T06:57:42.514Z,376.88
2018-05-31T06:58:42.459Z,376.88
2018-05-31T06:59:42.408Z,376.88
2018-05-31T07:00:42.357Z,382.50
2018-05-31T07:01:42.296Z,382.50
2018-05-31T07:02:42.246Z,382.50
2018-05-31T07:03:42.185Z,382.50
2018-05-31T07:04:42.139Z,382.50
2018-05-31T07:05:42.082Z,382.50
2018-05-31T07:06:42.047Z,382.50
2018-05-31T07:07:41.965Z,382.50
2018-05-31T07:08:41.912Z,382.50
2018-05-31T07:09:41.859Z,388.13
2018-05-31T07:10:41.804Z,382.50
2018-05-31T07:11:41.746Z,382.50
2018-05-31T07:12:41.694Z,388.13
2018-05-31T07:13:41.637Z,388.13
2018-05-31T07:14:41.580Z,388.13
2018-05-31T07:15:41.527Z,388.13
2018-05-31T07:16:41.475Z,388.13
2018-05-31T07:17:41.419Z,388.13
2018-05-31T07:18:41.363Z,393.75
2018-05-31T07:19:41.317Z,388.13
2018-05-31T07:20:41.254Z,388.13
2018-05-31T07:21:41.228Z,388.13
2018-05-31T07:22:41.147Z,388.13
2018-05-31T07:23:41.105Z,393.75
2018-05-31T07:24:41.040Z,393.75
2018-05-31T07:25:40.983Z,393.75
2018-05-31T07:26:40.927Z,393.75
2018-05-31T07:27:40.885Z,393.75
2018-05-31T07:28:40.818Z,393.75
2018-05-31T07:29:40.769Z,388.13
2018-05-31T07:30:40.710Z,393.75
2018-05-31T07:31:40.653Z,393.75
2018-05-31T07:32:40.600Z,393.75
2018-05-31T07:33:40.555Z,393.75
2018-05-31T07:34:40.493Z,393.75
2018-05-31T07:35:40.439Z,393.75
2018-05-31T07:36:40.400Z,393.75
2018-05-31T07:37:40.329Z,399.38
2018-05-31T07:38:40.276Z,399.38
2018-05-31T07:39:40.221Z,399.38
2018-05-31T07:40:40.165Z,399.38
2018-05-31T07:41:40.111Z,405.00
2018-05-31T07:42:40.057Z,399.38
2018-05-31T07:43:40.011Z,399.38
2018-05-31T07:44:39.950Z,399.38
2018-05-31T07:45:39.895Z,399.38
2018-05-31T07:46:39.839Z,405.00
2018-05-31T07:47:39.788Z,405.00
2018-05-31T07:48:39.734Z,399.38
2018-05-31T07:49:39.677Z,399.38
2018-05-31T07:50:39.633Z,399.38
2018-05-31T07:51:39.569Z,399.38
2018-05-31T07:52:39.516Z,405.00
2018-05-31T07:53:39.464Z,405.00
2018-05-31T07:54:39.407Z,405.00
2018-05-31T07:55:39.359Z,405.00
2018-05-31T07:56:39.324Z,405.00
2018-05-31T07:57:39.245Z,405.00
2018-05-31T07:58:39.192Z,405.00
2018-05-31T07:59:39.135Z,405.00
2018-05-31T08:00:39.085Z,405.00
2018-05-31T08:01:39.036Z,405.00
2018-05-31T08:02:38.977Z,405.00
2018-05-31T08:03:38.921Z,410.63
2018-05-31T08:04:38.870Z,405.00
2018-05-31T08:05:38.852Z,405.00
2018-05-31T08:06:38.763Z,405.00
2018-05-31T08:07:38.708Z,405.00
2018-05-31T08:08:38.654Z,405.00
2018-05-31T08:09:38.599Z,410.63
2018-05-31T08:10:38.542Z,410.63
2018-05-31T08:11:38.495Z,410.63
2018-05-31T08:12:38.433Z,410.63
2018-05-31T08:13:38.386Z,416.25
2018-05-31T08:14:38.337Z,410.63
2018-05-31T08:15:38.278Z,410.63
2018-05-31T08:16:38.223Z,416.25
2018-05-31T08:17:38.169Z,410.63
2018-05-31T08:18:38.118Z,416.25
2018-05-31T08:19:38.063Z,416.25
2018-05-31T08:20:38.016Z,421.88
2018-05-31T08:21:37.955Z,421.88
2018-05-31T08:22:37.901Z,416.25
2018-05-31T08:23:37.853Z,421.88
2018-05-31T08:24:37.795Z,421.88
2018-05-31T08:25:37.745Z,421.88
2018-05-31T08:26:37.688Z,421.88
2018-05-31T08:27:37.635Z,421.88
2018-05-31T08:28:37.582Z,421.88
2018-05-31T08:29:37.546Z,427.50
2018-05-31T08:30:37.472Z,427.50
2018-05-31T08:31:37.473Z,433.13
2018-05-31T08:32:37.364Z,427.50
2018-05-31T08:33:37.319Z,427.50
2018-05-31T08:34:37.259Z,427.50
2018-05-31T08:35:37.204Z,427.50
2018-05-31T08:36:37.150Z,427.50
2018-05-31T08:37:37.100Z,433.13
2018-05-31T08:38:37.049Z,433.13
2018-05-31T08:39:36.993Z,438.75
2018-05-31T08:40:36.947Z,433.13
2018-05-31T08:41:36.881Z,433.13
2018-05-31T08:42:36.830Z,433.13
2018-05-31T08:43:36.777Z,433.13
2018-05-31T08:44:36.756Z,433.13
2018-05-31T08:45:36.678Z,433.13
2018-05-31T08:46:36.616Z,433.13
2018-05-31T08:47:36.566Z,433.13
2018-05-31T08:48:36.512Z,433.13
2018-05-31T08:49:36.455Z,438.75
2018-05-31T08:50:36.400Z,438.75
2018-05-31T08:51:36.355Z,438.75
2018-05-31T08:52:36.299Z,444.38
2018-05-31T08:53:36.247Z,444.38
2018-05-31T08:54:36.189Z,450.00
2018-05-31T08:55:36.136Z,455.63
2018-05-31T08:56:36.082Z,450.00
2018-05-31T08:57:36.035Z,455.63
2018-05-31T08:58:35.978Z,455.63
2018-05-31T08:59:35.927Z,455.63
2018-05-31T09:00:35.871Z,455.63
2018-05-31T09:01:35.819Z,455.63
2018-05-31T09:02:35.762Z,461.25
2018-05-31T09:03:35.708Z,466.88
2018-05-31T09:04:35.657Z,461.25
2018-05-31T09:05:35.620Z,461.25
2018-05-31T09:06:35.551Z,466.88
2018-05-31T09:07:35.497Z,466.88
2018-05-31T09:08:35.444Z,466.88
2018-05-31T09:09:35.393Z,466.88
2018-05-31T09:10:35.340Z,466.88
2018-05-31T09:11:35.287Z,472.50
2018-05-31T09:12:35.241Z,472.50
2018-05-31T09:13:35.180Z,472.50
2018-05-31T09:14:35.128Z,472.50
2018-05-31T09:15:35.072Z,472.50
2018-05-31T09:16:35.032Z,472.50
2018-05-31T09:17:34.971Z,472.50
2018-05-31T09:18:34.915Z,478.13
2018-05-31T09:19:34.863Z,478.13
2018-05-31T09:20:34.817Z,478.13
2018-05-31T09:21:34.753Z,478.13
2018-05-31T09:22:34.698Z,478.13
2018-05-31T09:23:34.651Z,478.13
2018-05-31T09:24:34.598Z,478.13
2018-05-31T09:25:34.540Z,478.13
2018-05-31T09:26:34.503Z,483.75
2018-05-31T09:27:34.433Z,489.38
2018-05-31T09:28:34.388Z,495.00
2018-05-31T09:29:34.330Z,495.00
2018-05-31T09:30:34.279Z,500.63
2018-05-31T09:31:34.223Z,495.00
2018-05-31T09:32:34.170Z,495.00
2018-05-31T09:33:34.117Z,495.00
2018-05-31T09:34:34.063Z,500.63
2018-05-31T09:35:34.009Z,506.25
2018-05-31T09:36:33.956Z,511.88
2018-05-31T09:37:33.906Z,511.88
2018-05-31T09:38:33.858Z,506.25
2018-05-31T09:39:33.797Z,506.25
2018-05-31T09:40:33.744Z,511.88
2018-05-31T09:41:33.695Z,523.13
2018-05-31T09:42:33.640Z,534.38
2018-05-31T09:43:33.587Z,534.38
2018-05-31T09:44:33.538Z,540.00
2018-05-31T09:45:33.481Z,528.75
2018-05-31T09:46:33.448Z,534.38
2018-05-31T09:47:33.373Z,534.38
2018-05-31T09:48:33.328Z,540.00
2018-05-31T09:49:33.270Z,534.38
2018-05-31T09:50:33.218Z,528.75
2018-05-31T09:51:33.165Z,534.38
2018-05-31T09:52:33.110Z,528.75
2018-05-31T09:53:33.061Z,528.75
2018-05-31T09:54:33.005Z,534.38
2018-05-31T09:55:32.956Z,534.38
2018-05-31T09:56:32.908Z,540.00
2018-05-31T09:57:32.845Z,545.63
2018-05-31T09:58:32.792Z,551.25
2018-05-31T09:59:32.741Z,556.88
2018-05-31T10:00:32.695Z,556.88
2018-05-31T10:01:32.636Z,562.50
2018-05-31T10:02:32.586Z,551.25
2018-05-31T10:03:32.535Z,551.25
2018-05-31T10:04:32.479Z,556.88
2018-05-31T10:05:32.424Z,556.88
2018-05-31T10:06:32.375Z,556.88
2018-05-31T10:07:32.324Z,562.50
2018-05-31T10:08:32.268Z,562.50
2018-05-31T10:09:32.221Z,562.50
2018-05-31T10:10:32.162Z,562.50
2018-05-31T10:11:32.108Z,562.50
2018-05-31T10:12:32.057Z,562.50
2018-05-31T10:13:32.006Z,562.50
2018-05-31T10:14:31.956Z,568.13
2018-05-31T10:15:31.905Z,573.75
2018-05-31T10:16:31.849Z,579.38
2018-05-31T10:17:31.798Z,579.38
2018-05-31T10:18:31.741Z,585.00
2018-05-31T10:19:31.695Z,579.38
2018-05-31T10:20:31.639Z,585.00
2018-05-31T10:21:31.587Z,585.00
2018-05-31T10:22:31.531Z,585.00
2018-05-31T10:23:31.479Z,585.00
2018-05-31T10:24:31.438Z,590.63
2018-05-31T10:25:31.382Z,596.25
2018-05-31T10:26:31.323Z,607.50
2018-05-31T10:27:31.268Z,613.13
2018-05-31T10:28:31.220Z,601.88
2018-05-31T10:29:31.172Z,601.88
2018-05-31T10:30:31.115Z,607.50
2018-05-31T10:31:31.065Z,607.50
2018-05-31T10:32:31.013Z,607.50
2018-05-31T10:33:30.956Z,613.13
2018-05-31T10:34:30.901Z,613.13
2018-05-31T10:35:30.856Z,618.75
2018-05-31T10:36:30.797Z,618.75
2018-05-31T10:37:30.746Z,624.38
2018-05-31T10:38:30.695Z,630.00
2018-05-31T10:39:30.646Z,635.63
2018-05-31T10:40:30.591Z,635.63
2018-05-31T10:41:30.537Z,641.25
2018-05-31T10:42:30.484Z,646.88
2018-05-31T10:43:30.434Z,658.13
2018-05-31T10:44:30.382Z,669.38
2018-05-31T10:45:30.331Z,669.38
2018-05-31T10:46:30.290Z,669.38
2018-05-31T10:47:30.224Z,675.00
2018-05-31T10:48:30.175Z,675.00
2018-05-31T10:49:30.119Z,680.63
2018-05-31T10:50:30.069Z,680.63
2018-05-31T10:51:30.016Z,680.63
2018-05-31T10:52:29.968Z,680.63
2018-05-31T10:53:29.914Z,680.63
2018-05-31T10:54:29.861Z,675.00
2018-05-31T10:55:29.807Z,675.00
2018-05-31T10:56:29.752Z,680.63
2018-05-31T10:57:29.714Z,691.88
2018-05-31T10:58:29.652Z,697.50
2018-05-31T10:59:29.599Z,708.75
2018-05-31T11:00:29.546Z,708.75
2018-05-31T11:01:29.500Z,720.00
2018-05-31T11:02:29.446Z,725.63
2018-05-31T11:03:29.396Z,731.25
2018-05-31T11:04:29.353Z,742.50
2018-05-31T11:05:29.288Z,742.50
2018-05-31T11:06:29.237Z,748.13
2018-05-31T11:07:29.185Z,742.50
2018-05-31T11:08:29.136Z,748.13
2018-05-31T11:09:29.089Z,753.75
2018-05-31T11:10:29.031Z,759.38
2018-05-31T11:11:28.985Z,770.63
2018-05-31T11:12:28.933Z,781.88
2018-05-31T11:13:28.883Z,798.75
2018-05-31T11:14:28.833Z,804.38
2018-05-31T11:15:28.784Z,826.88
2018-05-31T11:16:28.741Z,849.38
2018-05-31T11:17:28.684Z,1006.88
2018-05-31T11:18:28.644Z,2790.00
2018-05-31T11:19:28.587Z,4488.75
2018-05-31T11:20:28.541Z,4635.00
2018-05-31T11:21:28.504Z,4702.50
2018-05-31T11:22:28.444Z,4696.88
2018-05-31T11:23:28.409Z,4612.50
2018-05-31T11:24:28.352Z,4522.50
2018-05-31T11:25:28.302Z,4449.38
2018-05-31T11:26:28.250Z,4320.00
2018-05-31T11:27:28.206Z,4145.63
2018-05-31T11:28:28.158Z,3971.25
2018-05-31T11:29:28.115Z,3819.38
2018-05-31T11:30:28.068Z,3796.88
2018-05-31T11:31:28.021Z,3802.50
2018-05-31T11:32:27.975Z,3836.25
2018-05-31T11:33:27.928Z,3870.00
2018-05-31T11:34:27.888Z,3892.50
2018-05-31T11:35:27.840Z,3847.50
2018-05-31T11:36:27.803Z,4044.38
2018-05-31T11:37:27.754Z,4297.50
2018-05-31T11:38:27.707Z,4511.25
2018-05-31T11:39:27.664Z,4590.00
2018-05-31T11:40:27.622Z,4573.13
2018-05-31T11:41:27.602Z,4449.38
2018-05-31T11:42:27.537Z,4398.75
2018-05-31T11:43:27.495Z,4185.00
2018-05-31T11:44:27.452Z,3937.50
2018-05-31T11:45:27.407Z,3695.63
2018-05-31T11:46:27.365Z,3555.00
2018-05-31T11:47:27.327Z,3358.13
2018-05-31T11:48:27.285Z,3273.75
2018-05-31T11:49:27.236Z,3380.63
2018-05-31T11:50:27.197Z,3577.50
2018-05-31T11:51:27.190Z,3819.38
2018-05-31T11:52:27.116Z,4044.38
2018-05-31T11:53:27.083Z,4218.75
2018-05-31T11:54:27.035Z,4376.25
2018-05-31T11:55:26.996Z,4550.63
2018-05-31T11:56:26.983Z,4725.00
2018-05-31T11:57:26.911Z,4798.13
2018-05-31T11:58:26.868Z,4781.25
2018-05-31T11:59:26.829Z,4719.38
2018-05-31T12:00:26.802Z,4545.00
2018-05-31T12:01:26.755Z,4348.13
2018-05-31T12:02:26.710Z,4185.00
2018-05-31T12:03:26.668Z,4179.38
2018-05-31T12:04:26.626Z,4151.25
2018-05-31T12:05:26.590Z,4117.50
2018-05-31T12:06:26.602Z,4168.13
2018-05-31T12:07:26.511Z,4185.00
2018-05-31T12:08:26.476Z,4207.50
2018-05-31T12:09:26.427Z,4145.63
2018-05-31T12:10:26.389Z,4027.50
2018-05-31T12:11:26.351Z,4021.88
2018-05-31T12:12:26.326Z,4033.13
2018-05-31T12:13:26.275Z,4213.13
2018-05-31T12:14:26.241Z,4387.50
2018-05-31T12:15:26.195Z,4528.13
2018-05-31T12:16:26.167Z,4516.88
2018-05-31T12:17:26.156Z,4387.50
2018-05-31T12:18:26.082Z,4303.13
2018-05-31T12:19:26.052Z,4111.88
2018-05-31T12:20:26.007Z,3898.13
2018-05-31T12:21:25.966Z,3577.50
2018-05-31T12:22:25.924Z,3335.63
2018-05-31T12:23:25.886Z,3178.13
2018-05-31T12:24:25.844Z,3183.75
2018-05-31T12:25:25.827Z,3330.00
2018-05-31T12:26:25.778Z,3510.00
2018-05-31T12:27:25.737Z,3723.75
2018-05-31T12:28:25.701Z,3965.63
2018-05-31T12:29:25.659Z,4156.88
2018-05-31T12:30:25.622Z,4342.50
2018-05-31T12:31:25.584Z,4505.63
2018-05-31T12:32:25.546Z,4696.88
2018-05-31T12:33:25.522Z,4781.25
2018-05-31T12:34:25.476Z,4820.63
2018-05-31T12:35:25.434Z,4843.13
2018-05-31T12:36:25.398Z,4730.63
2018-05-31T12:37:25.365Z,4612.50